CheckWX is a tool to help pilots better visualize weather data.  It is not intended as a substitute for an official pre-flight weather briefing.

08:13:58 UTC

KSDB METAR
Sandberg Airport
Sandberg, California, USA
Current

21 mins ago

KSDB 220753Z AUTO 35014G21KT 10SM FEW008 M03/M05 A2973 RMK AO2 SLP074 T10281050 400061028
Observed
Feb-22 @ 07:53 UTC
Wind
  • 350° at 14 KTS
  • Gusting to KTS
Visibility
10 SM
Flight Rules
VFR
Cloud Levels
  • Few at 800' AGL
Temperature
-3°C / 27°F
Dewpoint
-5°C / 23°F
Humidity
86%
Altimeter
29.73" Hg
Pressure
1007.4 hPa
Previous

41 mins ago

KSDB 220733Z AUTO 34013KT 10SM SCT006 M03/M04 A2973 RMK AO2 T10281044
Observed
Feb-22 @ 07:33 UTC
Wind
  • 340° at 13 KTS
Visibility
10 SM
Flight Rules
VFR
Cloud Levels
  • Scattered at 600' AGL
Temperature
-3°C / 27°F
Dewpoint
-4°C / 25°F
Humidity
93%
Altimeter
29.73" Hg
Pressure
1006.82 hPa
Previous

58 mins ago

KSDB 220716Z AUTO 36009G20KT 340V050 10SM BKN006 M03/M04 A2972 RMK AO2 CIG 004V009 T10281039
Observed
Feb-22 @ 07:16 UTC
Wind
  • 360° at 9 KTS
  • Gusting to KTS
Visibility
10 SM
Flight Rules
IFR
Cloud Levels
  • Broken at 600' AGL
Temperature
-3°C / 27°F
Dewpoint
-4°C / 25°F
Humidity
93%
Altimeter
29.72" Hg
Pressure
1006.42 hPa